Time;durP1;ratioP1;P1;durP2;ratioP2;P2;SDS_P1;SDS_P2;PMS_P1;PMS_P2;Temp;Humidity;BMP_temperature;BMP_pressure;BME280_temperature;BME280_humidity;BME280_pressure;Samples;Min_cycle;Max_cycle;Signal;HPM_P1;HPM_P2
2020/12/03 00:04:52;;;;;;;38.03;21.17;;;2.40;99.90;;;;;;12506797;28;20450;-38
2020/12/03 00:10:53;;;;;;;36.40;20.65;;;2.30;99.90;;;;;;12500761;28;20088;-37
2020/12/03 00:16:54;;;;;;;41.97;22.50;;;2.30;99.90;;;;;;12523056;28;20757;-38
2020/12/03 00:22:56;;;;;;;42.33;21.83;;;2.30;99.90;;;;;;12512650;28;20745;-38
2020/12/03 00:28:58;;;;;;;40.08;21.48;;;2.40;99.90;;;;;;12503670;28;20488;-37
2020/12/03 00:35:00;;;;;;;38.42;21.00;;;2.40;99.90;;;;;;12502448;28;20496;-38
2020/12/03 00:41:01;;;;;;;37.10;19.95;;;2.40;99.90;;;;;;12517705;28;20059;-37
2020/12/03 00:47:03;;;;;;;36.70;19.02;;;2.40;99.90;;;;;;12508005;28;20378;-38
2020/12/03 00:53:04;;;;;;;33.55;19.42;;;2.40;99.90;;;;;;12508113;28;20551;-38
2020/12/03 00:59:06;;;;;;;35.42;19.23;;;2.40;99.90;;;;;;12501371;28;20155;-38
2020/12/03 01:05:09;;;;;;;35.58;19.25;;;2.40;99.90;;;;;;12513697;28;20144;-37
2020/12/03 01:11:10;;;;;;;31.83;19.17;;;2.40;99.90;;;;;;12511261;28;20510;-38
2020/12/03 01:17:14;;;;;;;36.63;19.95;;;2.40;99.90;;;;;;12534546;28;20143;-38
2020/12/03 01:23:15;;;;;;;37.30;20.25;;;2.40;99.90;;;;;;12514055;28;20045;-37
2020/12/03 01:29:18;;;;;;;34.28;19.70;;;2.40;99.90;;;;;;12507169;28;20057;-38
2020/12/03 01:35:20;;;;;;;35.42;20.20;;;2.40;99.90;;;;;;12501458;28;20654;-37
2020/12/03 01:41:23;;;;;;;36.25;19.95;;;2.40;99.90;;;;;;12523539;28;20060;-38
2020/12/03 01:47:34;;;;;;;34.65;19.63;;;2.40;99.90;;;;;;12506032;28;20132;-37
2020/12/03 01:53:36;;;;;;;34.15;19.17;;;2.40;99.90;;;;;;12526838;28;20135;-38
2020/12/03 01:59:42;;;;;;;35.72;19.50;;;2.30;99.90;;;;;;12530578;28;20049;-37
2020/12/03 02:05:43;;;;;;;34.70;19.10;;;2.30;99.90;;;;;;12532523;28;20136;-38
2020/12/03 02:11:45;;;;;;;30.65;18.10;;;2.30;99.90;;;;;;12530441;28;20064;-38
2020/12/03 02:17:46;;;;;;;33.65;18.85;;;2.30;99.90;;;;;;12509180;28;20080;-37
2020/12/03 02:23:48;;;;;;;30.65;17.75;;;2.40;99.90;;;;;;12534855;28;20041;-38
2020/12/03 02:29:50;;;;;;;32.88;18.33;;;2.40;99.90;;;;;;12526996;28;20069;-38
2020/12/03 02:35:51;;;;;;;32.17;18.13;;;2.30;99.90;;;;;;12516230;28;20152;-37
2020/12/03 02:41:52;;;;;;;31.23;16.88;;;2.30;99.90;;;;;;12514250;28;20143;-38
2020/12/03 02:47:54;;;;;;;30.67;17.75;;;2.30;99.90;;;;;;12525566;28;20084;-38
2020/12/03 02:53:55;;;;;;;30.20;18.13;;;2.30;99.90;;;;;;12524702;28;20453;-37
2020/12/03 02:59:56;;;;;;;29.75;17.10;;;2.30;99.90;;;;;;12525130;28;20087;-38
2020/12/03 03:05:58;;;;;;;27.25;16.10;;;2.30;99.90;;;;;;12517588;28;20290;-37
2020/12/03 03:12:00;;;;;;;30.15;16.35;;;2.40;99.90;;;;;;12516078;28;20079;-37
2020/12/03 03:18:02;;;;;;;29.38;16.80;;;2.40;99.90;;;;;;12527822;28;20439;-37
2020/12/03 03:24:04;;;;;;;29.73;17.58;;;2.40;99.90;;;;;;12502169;28;20501;-37
2020/12/03 03:30:06;;;;;;;27.38;15.77;;;2.40;99.90;;;;;;12526000;28;20080;-37
2020/12/03 03:36:08;;;;;;;28.55;17.20;;;2.40;99.90;;;;;;12516645;28;20053;-38
2020/12/03 03:42:09;;;;;;;27.48;15.65;;;2.40;99.90;;;;;;12518413;28;20756;-38
2020/12/03 03:48:11;;;;;;;27.52;15.32;;;2.40;99.90;;;;;;12522125;28;20522;-37
2020/12/03 03:54:12;;;;;;;26.92;15.07;;;2.40;99.90;;;;;;12520156;28;20095;-38
2020/12/03 04:00:16;;;;;;;25.60;15.60;;;2.50;99.90;;;;;;12525670;28;20127;-38
2020/12/03 04:06:18;;;;;;;27.98;15.98;;;2.50;99.90;;;;;;12525077;28;20048;-37
2020/12/03 04:12:20;;;;;;;27.65;15.27;;;2.50;99.90;;;;;;12503264;28;20044;-38
2020/12/03 04:18:26;;;;;;;28.10;15.68;;;2.40;99.90;;;;;;12509459;28;20068;-38
2020/12/03 04:24:27;;;;;;;27.92;16.73;;;2.40;99.90;;;;;;12503699;28;20070;-37
2020/12/03 04:30:29;;;;;;;30.20;17.25;;;2.40;99.90;;;;;;12504923;28;20760;-37
2020/12/03 04:36:30;;;;;;;28.27;17.15;;;2.40;99.90;;;;;;12517892;28;20079;-37
2020/12/03 04:42:35;;;;;;;32.40;17.65;;;2.40;99.90;;;;;;12504631;28;20135;-38
2020/12/03 04:49:26;;;;;;;30.85;17.60;;;2.40;99.90;;;;;;12500955;28;20071;-38
2020/12/03 04:55:32;;;;;;;30.33;16.98;;;2.40;99.90;;;;;;12506271;28;20052;-38
2020/12/03 05:01:50;;;;;;;29.95;17.75;;;2.40;99.90;;;;;;12505406;28;20069;-37
2020/12/03 05:08:04;;;;;;;33.22;17.95;;;2.40;99.90;;;;;;12524418;28;20072;-37
2020/12/03 05:14:31;;;;;;;28.77;17.30;;;2.40;99.90;;;;;;12496828;28;20504;-37
2020/12/03 05:20:50;;;;;;;29.10;16.98;;;2.40;99.90;;;;;;12496944;28;20575;-38
2020/12/03 05:26:51;;;;;;;30.85;17.80;;;2.40;99.90;;;;;;12511214;28;20085;-37
2020/12/03 05:32:53;;;;;;;33.80;17.63;;;2.40;99.90;;;;;;12508956;28;20045;-37
2020/12/03 05:38:56;;;;;;;30.95;18.05;;;2.40;99.90;;;;;;12503323;28;20076;-38
2020/12/03 05:45:11;;;;;;;29.30;17.55;;;2.40;99.90;;;;;;12507375;28;20049;-37
2020/12/03 05:51:17;;;;;;;32.78;16.83;;;2.40;99.90;;;;;;12509523;28;20059;-38
2020/12/03 05:57:25;;;;;;;30.52;17.00;;;2.40;99.90;;;;;;12514961;28;20079;-38
2020/12/03 06:03:49;;;;;;;31.75;18.38;;;2.50;99.90;;;;;;12528077;28;20048;-37
2020/12/03 06:09:59;;;;;;;32.45;18.27;;;2.40;99.90;;;;;;12510363;28;20167;-39
2020/12/03 06:16:12;;;;;;;33.90;19.75;;;2.30;99.90;;;;;;12511043;28;21032;-37
2020/12/03 06:22:46;;;;;;;33.65;19.17;;;2.20;99.90;;;;;;12514671;28;20083;-37
2020/12/03 06:29:17;;;;;;;39.53;20.33;;;2.10;99.90;;;;;;12479030;28;20080;-37
2020/12/03 06:35:31;;;;;;;38.42;20.70;;;2.10;99.90;;;;;;12490005;28;20064;-37
2020/12/03 06:41:41;;;;;;;39.57;20.67;;;2.10;99.90;;;;;;12513203;28;20067;-37
2020/12/03 06:47:54;;;;;;;35.25;18.95;;;2.20;99.90;;;;;;12517355;28;20883;-37
2020/12/03 06:54:18;;;;;;;33.60;19.00;;;2.20;99.90;;;;;;12510928;28;20085;-37
2020/12/03 07:00:22;;;;;;;41.15;19.92;;;2.20;99.90;;;;;;12507275;28;20099;-37
2020/12/03 07:07:01;;;;;;;36.73;19.80;;;2.20;99.90;;;;;;12514852;28;20045;-37
2020/12/03 07:13:30;;;;;;;38.00;18.92;;;2.20;99.90;;;;;;12514013;28;20069;-37
2020/12/03 07:19:49;;;;;;;41.15;20.00;;;2.20;99.90;;;;;;12509883;28;20045;-37
2020/12/03 07:25:50;;;;;;;38.40;19.95;;;2.20;99.90;;;;;;12521531;28;20103;-37
2020/12/03 07:31:58;;;;;;;40.70;20.75;;;2.20;99.90;;;;;;12522911;28;20041;-37
2020/12/03 07:38:12;;;;;;;39.13;22.23;;;2.20;99.90;;;;;;12524819;28;20056;-37
2020/12/03 07:44:37;;;;;;;42.42;23.13;;;2.00;99.90;;;;;;12510816;28;20080;-38
2020/12/03 07:50:45;;;;;;;40.70;20.52;;;2.00;99.90;;;;;;12511461;28;20199;-37
2020/12/03 07:56:47;;;;;;;43.92;21.85;;;2.10;99.90;;;;;;12517610;28;20047;-37
2020/12/03 08:02:55;;;;;;;41.47;20.58;;;2.10;99.90;;;;;;12513058;28;20139;-37
2020/12/03 08:09:02;;;;;;;40.28;21.38;;;2.20;99.90;;;;;;12504955;28;20056;-38
2020/12/03 08:15:05;;;;;;;42.80;20.83;;;2.20;99.90;;;;;;12502574;28;20044;-38
2020/12/03 08:21:07;;;;;;;40.50;20.70;;;2.30;99.90;;;;;;12507816;28;20063;-37
2020/12/03 08:27:15;;;;;;;40.60;20.60;;;2.30;99.90;;;;;;12517770;28;20087;-37
2020/12/03 08:33:35;;;;;;;37.55;20.10;;;2.40;99.90;;;;;;12518227;28;20049;-37
2020/12/03 08:39:38;;;;;;;37.08;19.42;;;2.40;99.90;;;;;;12509079;28;20049;-38
2020/12/03 08:45:47;;;;;;;37.58;19.02;;;2.50;99.90;;;;;;12511970;28;20057;-37
2020/12/03 08:51:49;;;;;;;40.25;20.83;;;2.50;99.90;;;;;;12505555;28;20445;-37
2020/12/03 08:57:56;;;;;;;38.35;19.30;;;2.40;99.90;;;;;;12510627;28;20072;-37
2020/12/03 09:03:58;;;;;;;34.22;18.88;;;2.50;99.90;;;;;;12512076;28;20072;-38
2020/12/03 09:10:03;;;;;;;35.83;19.75;;;2.50;99.90;;;;;;12516590;28;20531;-38
2020/12/03 09:16:08;;;;;;;37.67;19.43;;;2.50;99.90;;;;;;12486665;28;20083;-38
2020/12/03 09:22:12;;;;;;;36.95;19.20;;;2.60;99.90;;;;;;12498934;28;20144;-37
2020/12/03 09:28:14;;;;;;;37.72;19.42;;;2.60;99.90;;;;;;12522091;28;20056;-37
2020/12/03 09:34:16;;;;;;;33.17;17.65;;;2.70;99.90;;;;;;12525595;28;20567;-37
2020/12/03 09:40:20;;;;;;;33.30;19.23;;;2.80;99.90;;;;;;12507810;28;20179;-38
2020/12/03 09:46:25;;;;;;;33.20;18.45;;;2.80;99.90;;;;;;12518302;28;20060;-37
2020/12/03 09:52:27;;;;;;;35.88;19.38;;;2.80;99.90;;;;;;12515346;28;20064;-37
2020/12/03 09:58:29;;;;;;;35.03;18.98;;;2.90;99.90;;;;;;12525053;28;20151;-37
2020/12/03 10:04:55;;;;;;;33.72;18.30;;;2.90;99.90;;;;;;12504251;28;20492;-37
2020/12/03 10:11:27;;;;;;;36.33;19.05;;;2.90;99.90;;;;;;12523348;28;20732;-37
2020/12/03 10:17:43;;;;;;;39.97;19.13;;;2.90;99.90;;;;;;12507709;28;20189;-37
2020/12/03 10:24:03;;;;;;;31.83;17.80;;;2.90;99.90;;;;;;12513825;28;21174;-37
2020/12/03 10:30:09;;;;;;;32.13;17.85;;;3.00;99.90;;;;;;12518816;28;20076;-37
2020/12/03 10:36:23;;;;;;;31.75;17.48;;;3.00;99.90;;;;;;12505192;28;20147;-37
2020/12/03 10:42:31;;;;;;;31.55;16.83;;;3.10;99.90;;;;;;12523847;28;20079;-38
2020/12/03 10:48:36;;;;;;;27.88;16.23;;;3.20;99.90;;;;;;12503698;28;20083;-38
2020/12/03 10:54:37;;;;;;;29.70;16.30;;;3.10;99.90;;;;;;12518955;28;20164;-37
2020/12/03 11:00:41;;;;;;;30.08;16.33;;;3.30;99.90;;;;;;12494611;28;20401;-37
2020/12/03 11:06:43;;;;;;;31.40;16.40;;;3.20;99.90;;;;;;12518193;28;20468;-39
2020/12/03 11:12:46;;;;;;;27.63;15.40;;;3.10;99.90;;;;;;12495966;28;20144;-37
2020/12/03 11:18:49;;;;;;;26.58;14.63;;;3.10;99.90;;;;;;12514030;28;20045;-37
2020/12/03 11:24:59;;;;;;;30.38;16.92;;;3.60;99.90;;;;;;12503917;28;20143;-37
2020/12/03 11:31:07;;;;;;;27.50;15.63;;;3.60;99.90;;;;;;12507659;28;20075;-37
2020/12/03 11:37:08;;;;;;;28.08;14.88;;;3.70;99.90;;;;;;12498655;28;20087;-37
2020/12/03 11:49:31;;;;;;;28.27;14.68;;;3.80;99.90;;;;;;12503910;28;20148;-38
2020/12/03 11:55:39;;;;;;;26.80;14.05;;;3.70;99.90;;;;;;12508530;28;20052;-37
2020/12/03 12:01:57;;;;;;;26.90;14.10;;;3.40;99.90;;;;;;12504624;28;20049;-37
2020/12/03 12:08:07;;;;;;;25.05;14.32;;;3.50;99.90;;;;;;12512794;28;20131;-37
2020/12/03 12:14:08;;;;;;;25.52;14.32;;;3.50;99.90;;;;;;12480968;28;20082;-38
2020/12/03 12:20:11;;;;;;;27.27;14.50;;;3.60;99.90;;;;;;12511624;28;20148;-38
2020/12/03 12:26:13;;;;;;;27.92;16.13;;;3.50;99.90;;;;;;12494458;28;20063;-37
2020/12/03 12:32:15;;;;;;;25.77;14.55;;;3.30;99.90;;;;;;12502658;28;20048;-37
2020/12/03 12:38:16;;;;;;;29.38;15.70;;;3.10;99.90;;;;;;12489261;28;20073;-37
2020/12/03 12:44:18;;;;;;;25.17;14.52;;;3.00;99.90;;;;;;12499693;28;20044;-37
2020/12/03 12:50:19;;;;;;;27.52;14.90;;;3.00;99.90;;;;;;12505364;28;20107;-39
2020/12/03 12:56:20;;;;;;;25.98;14.65;;;3.10;99.90;;;;;;12509045;28;20091;-37
2020/12/03 13:02:22;;;;;;;30.08;15.13;;;3.00;99.90;;;;;;12498964;28;20076;-37
2020/12/03 13:08:24;;;;;;;27.15;14.05;;;3.10;99.90;;;;;;12523816;28;20044;-37
2020/12/03 13:14:26;;;;;;;25.98;14.10;;;3.20;99.90;;;;;;12509978;28;20060;-37
2020/12/03 13:20:27;;;;;;;25.58;13.10;;;3.30;99.90;;;;;;12495216;28;20056;-37
2020/12/03 13:26:29;;;;;;;26.35;14.82;;;3.30;99.90;;;;;;12520377;28;20083;-37
2020/12/03 13:32:30;;;;;;;21.90;13.00;;;3.50;99.90;;;;;;12502114;28;20136;-38
2020/12/03 13:38:32;;;;;;;21.73;12.95;;;3.50;99.90;;;;;;12514365;28;20445;-37
2020/12/03 13:44:33;;;;;;;21.58;12.60;;;3.30;99.90;;;;;;12519820;28;20076;-37
2020/12/03 13:50:34;;;;;;;21.50;13.02;;;3.20;99.90;;;;;;12508857;28;20049;-37
2020/12/03 13:56:36;;;;;;;20.98;12.43;;;3.20;99.90;;;;;;12523671;28;20139;-37
2020/12/03 14:02:37;;;;;;;21.45;12.57;;;3.20;99.90;;;;;;12504077;28;20156;-37
2020/12/03 14:08:38;;;;;;;20.55;12.32;;;3.20;99.90;;;;;;12517721;28;20040;-37
2020/12/03 14:14:40;;;;;;;19.85;11.38;;;3.10;99.90;;;;;;12504972;28;20076;-37
2020/12/03 14:20:42;;;;;;;23.60;13.07;;;3.00;99.90;;;;;;12518442;28;20049;-37
2020/12/03 14:26:43;;;;;;;22.60;12.75;;;3.00;99.90;;;;;;12522546;28;20140;-38
2020/12/03 14:32:45;;;;;;;21.23;12.45;;;3.00;99.90;;;;;;12524124;28;20157;-37
2020/12/03 14:38:47;;;;;;;22.95;12.50;;;3.00;99.90;;;;;;12512958;28;20072;-38
2020/12/03 14:44:48;;;;;;;20.15;11.60;;;3.00;99.90;;;;;;12513618;28;20049;-37
2020/12/03 14:50:50;;;;;;;19.98;11.18;;;2.90;99.90;;;;;;12518217;28;20057;-37
2020/12/03 14:56:51;;;;;;;20.45;12.07;;;2.90;99.90;;;;;;12516103;28;20452;-37
2020/12/03 15:02:52;;;;;;;20.88;11.48;;;2.90;99.90;;;;;;12508128;28;20143;-39
2020/12/03 15:08:57;;;;;;;20.40;13.13;;;2.90;99.90;;;;;;12519010;28;20674;-38
2020/12/03 15:14:58;;;;;;;21.27;12.95;;;2.80;99.90;;;;;;12490851;28;20099;-37
2020/12/03 15:20:59;;;;;;;20.67;12.48;;;2.80;99.90;;;;;;12506468;28;20057;-37
2020/12/03 15:27:01;;;;;;;21.50;11.95;;;2.80;99.90;;;;;;12505517;28;20060;-37
2020/12/03 15:33:03;;;;;;;22.48;12.52;;;2.70;99.90;;;;;;12507296;28;20057;-37
2020/12/03 15:39:04;;;;;;;21.33;11.88;;;2.70;99.90;;;;;;12496544;28;20144;-38
2020/12/03 15:45:05;;;;;;;20.85;11.55;;;2.70;99.90;;;;;;12503238;28;20092;-37
2020/12/03 15:51:08;;;;;;;23.65;13.05;;;2.70;99.90;;;;;;12509052;28;20045;-37
2020/12/03 15:57:10;;;;;;;21.38;12.52;;;2.80;99.90;;;;;;12506379;28;20050;-38
2020/12/03 16:03:12;;;;;;;24.45;12.98;;;2.80;99.90;;;;;;12503553;28;20049;-37
2020/12/03 16:09:13;;;;;;;21.48;13.45;;;2.80;99.90;;;;;;12509721;28;20072;-37
2020/12/03 16:15:15;;;;;;;24.13;15.07;;;2.80;99.90;;;;;;12494921;28;20136;-38
2020/12/03 16:21:17;;;;;;;25.83;15.60;;;2.70;99.90;;;;;;12509927;28;20079;-37
2020/12/03 16:27:18;;;;;;;24.80;15.65;;;2.80;99.90;;;;;;12517833;28;21192;-37
2020/12/03 16:33:19;;;;;;;28.15;16.42;;;2.70;99.90;;;;;;12504750;28;20203;-37
2020/12/03 16:39:21;;;;;;;26.65;14.88;;;2.70;99.90;;;;;;12490945;28;20140;-37
2020/12/03 16:45:22;;;;;;;31.10;17.17;;;2.70;99.90;;;;;;12501643;28;20052;-37
2020/12/03 16:51:23;;;;;;;29.83;16.30;;;2.70;99.90;;;;;;12501679;28;20157;-37
2020/12/03 16:57:25;;;;;;;30.35;16.88;;;2.60;99.90;;;;;;12497825;28;22065;-37
2020/12/03 17:03:26;;;;;;;28.77;17.58;;;2.50;99.90;;;;;;12499337;28;20131;-37
2020/12/03 17:09:28;;;;;;;28.42;17.50;;;2.50;99.90;;;;;;12510789;28;20048;-37
2020/12/03 17:15:29;;;;;;;29.10;17.95;;;2.60;99.90;;;;;;12499875;28;20108;-39
2020/12/03 17:21:33;;;;;;;28.85;17.42;;;2.60;99.90;;;;;;12510214;28;20143;-37
2020/12/03 17:27:34;;;;;;;28.77;17.48;;;2.70;99.90;;;;;;12514138;28;20052;-37
2020/12/03 17:33:36;;;;;;;27.77;15.93;;;2.70;99.90;;;;;;12516470;28;20057;-37
2020/12/03 17:39:37;;;;;;;27.67;17.73;;;2.70;99.90;;;;;;12504786;28;20176;-38
2020/12/03 17:45:41;;;;;;;27.05;17.63;;;2.60;99.90;;;;;;12513334;28;20040;-37
2020/12/03 17:51:44;;;;;;;25.47;16.40;;;2.60;99.90;;;;;;12510645;28;20382;-37
2020/12/03 17:57:45;;;;;;;24.27;14.88;;;2.60;99.90;;;;;;12513996;28;20048;-37
2020/12/03 18:03:47;;;;;;;19.30;13.45;;;2.70;99.90;;;;;;12510257;28;20076;-38
2020/12/03 18:09:48;;;;;;;20.73;13.75;;;2.70;99.90;;;;;;12519632;28;20598;-38
2020/12/03 18:15:49;;;;;;;19.60;12.55;;;2.70;99.90;;;;;;12497152;28;20175;-37
2020/12/03 18:21:51;;;;;;;20.33;12.95;;;2.70;99.90;;;;;;12499043;28;20762;-38
2020/12/03 18:27:52;;;;;;;21.65;12.80;;;2.60;99.90;;;;;;12518729;28;20136;-38
2020/12/03 18:33:54;;;;;;;18.00;11.70;;;2.60;99.90;;;;;;12513712;28;20096;-38
2020/12/03 18:40:09;;;;;;;18.33;12.45;;;2.60;99.90;;;;;;12507360;28;20055;-37
2020/12/03 18:46:11;;;;;;;18.73;10.85;;;2.60;99.90;;;;;;12511298;28;20135;-38
2020/12/03 18:52:12;;;;;;;17.73;11.98;;;2.60;99.90;;;;;;12519036;28;20083;-39
2020/12/03 18:58:14;;;;;;;21.52;12.38;;;2.60;99.90;;;;;;12506203;28;20457;-37
2020/12/03 19:04:16;;;;;;;16.75;10.45;;;2.40;99.90;;;;;;12503291;28;20086;-37
2020/12/03 19:10:17;;;;;;;18.25;10.85;;;2.40;99.90;;;;;;12507450;28;20492;-37
2020/12/03 19:16:21;;;;;;;19.77;11.65;;;2.40;99.90;;;;;;12513003;28;20067;-38
2020/12/03 19:22:22;;;;;;;15.82;10.35;;;2.40;99.90;;;;;;12507975;28;20137;-38
2020/12/03 19:28:24;;;;;;;19.25;11.40;;;2.40;99.90;;;;;;12508481;28;20049;-37
2020/12/03 19:34:25;;;;;;;17.95;10.98;;;2.40;99.90;;;;;;12527301;28;20863;-37
2020/12/03 19:40:27;;;;;;;17.70;10.85;;;2.40;99.90;;;;;;12511096;28;20049;-38
2020/12/03 19:46:28;;;;;;;18.05;10.75;;;2.40;99.90;;;;;;12515597;28;20060;-37
2020/12/03 19:52:29;;;;;;;19.98;10.88;;;2.40;99.90;;;;;;12518935;28;20105;-38
2020/12/03 19:58:32;;;;;;;16.95;10.70;;;2.50;99.90;;;;;;12503425;28;20080;-37
2020/12/03 20:04:34;;;;;;;16.73;10.15;;;2.50;99.90;;;;;;12517261;28;20083;-37
2020/12/03 20:10:35;;;;;;;18.17;10.43;;;2.50;99.90;;;;;;12509008;28;20081;-37
2020/12/03 20:16:36;;;;;;;16.98;10.45;;;2.60;99.90;;;;;;12506842;28;20564;-38
2020/12/03 20:22:38;;;;;;;20.65;10.48;;;2.60;99.90;;;;;;12492533;28;20148;-37
2020/12/03 20:28:40;;;;;;;20.67;10.70;;;2.60;99.90;;;;;;12512201;28;20084;-38
2020/12/03 20:34:42;;;;;;;18.85;10.20;;;2.50;99.90;;;;;;12503511;28;20056;-38
2020/12/03 20:40:43;;;;;;;17.52;10.30;;;2.50;99.90;;;;;;12505063;28;20080;-37
2020/12/03 20:46:44;;;;;;;19.88;11.10;;;2.50;99.90;;;;;;12499909;28;20140;-41
2020/12/03 20:52:46;;;;;;;18.52;10.18;;;2.50;99.90;;;;;;12511609;28;20143;-37
2020/12/03 20:58:47;;;;;;;18.63;11.68;;;2.50;99.90;;;;;;12491784;28;20049;-37
2020/12/03 21:04:48;;;;;;;20.42;12.00;;;2.60;99.90;;;;;;12514257;28;20544;-37
2020/12/03 21:10:58;;;;;;;19.20;11.32;;;2.60;99.90;;;;;;12513266;28;20076;-38
2020/12/03 21:16:59;;;;;;;16.42;9.20;;;2.60;99.90;;;;;;12479513;28;20076;-37
2020/12/03 21:23:01;;;;;;;21.10;10.75;;;2.60;99.90;;;;;;12509963;28;20469;-37
2020/12/03 21:29:02;;;;;;;21.48;10.90;;;2.60;99.90;;;;;;12521494;28;20567;-37
2020/12/03 21:35:03;;;;;;;18.38;10.68;;;2.70;99.90;;;;;;12524392;28;20069;-38
2020/12/03 21:41:05;;;;;;;18.77;11.18;;;2.60;99.90;;;;;;12515996;28;21935;-37
2020/12/03 21:47:06;;;;;;;17.30;10.27;;;2.60;99.90;;;;;;12518207;28;20057;-37
2020/12/03 21:53:07;;;;;;;16.52;9.50;;;2.50;99.90;;;;;;12519684;28;20769;-37
2020/12/03 21:59:09;;;;;;;19.60;10.93;;;2.60;99.90;;;;;;12518338;28;20539;-37
2020/12/03 22:05:10;;;;;;;18.45;10.75;;;2.50;99.90;;;;;;12519222;28;20087;-38
2020/12/03 22:11:18;;;;;;;20.90;11.38;;;2.60;99.90;;;;;;12507280;28;20049;-37
2020/12/03 22:17:20;;;;;;;15.90;9.85;;;2.50;99.90;;;;;;12515874;28;21019;-38
2020/12/03 22:23:21;;;;;;;18.55;10.02;;;2.50;99.90;;;;;;12505259;28;20084;-37
2020/12/03 22:29:22;;;;;;;17.15;10.48;;;2.50;99.90;;;;;;12505494;28;20066;-37
2020/12/03 22:35:23;;;;;;;16.73;9.98;;;2.40;99.90;;;;;;12495237;28;20076;-38
2020/12/03 22:41:27;;;;;;;15.77;9.70;;;2.50;99.90;;;;;;12497364;28;20055;-37
2020/12/03 22:47:29;;;;;;;17.50;9.63;;;2.50;99.90;;;;;;12512781;28;20572;-37
2020/12/03 22:53:30;;;;;;;19.67;10.20;;;2.50;99.90;;;;;;12517179;28;20144;-38
2020/12/03 22:59:32;;;;;;;15.88;9.82;;;2.50;99.90;;;;;;12510587;28;20127;-37
2020/12/03 23:05:33;;;;;;;18.98;10.05;;;2.50;99.90;;;;;;12514418;28;20471;-37
2020/12/03 23:11:40;;;;;;;15.85;8.93;;;2.40;99.90;;;;;;12519672;28;20094;-37
2020/12/03 23:17:52;;;;;;;17.83;9.68;;;2.40;99.90;;;;;;12503745;28;20076;-37
2020/12/03 23:23:54;;;;;;;19.02;10.23;;;2.40;99.90;;;;;;12509296;28;20084;-37
2020/12/03 23:29:56;;;;;;;16.80;9.10;;;2.30;99.90;;;;;;12509389;28;20179;-38
2020/12/03 23:35:57;;;;;;;14.45;8.98;;;2.30;99.90;;;;;;12509293;28;20044;-37
2020/12/03 23:41:59;;;;;;;19.00;9.82;;;2.30;99.90;;;;;;12483318;28;20148;-37
2020/12/03 23:48:00;;;;;;;14.73;9.25;;;2.30;99.90;;;;;;12527902;28;20155;-37
2020/12/03 23:54:01;;;;;;;16.23;8.98;;;2.40;99.90;;;;;;12507739;28;20079;-36
